Latest Weather Observations for Yarrawonga

IDN60801

Issued at 10:03 am EST Tuesday 26 September 2017 (issued every 30 minutes, with the page automatically refreshed every 10 minutes)

About weather observations | Map of weather stations | Latest weather observations for NSW | Other Formats
Station Details ID: 081124 Name: YARRAWONGA Lat: -36.03 Lon: 146.03 Height: 128.9 m
Data from the previous 72 hours. | See also: Recent months at Yarrawonga
Date/Time
EST
Temp
°C
App
Temp
°C
Dew
Point
°C
Rel
Hum
%
Delta-T
°C
Wind Press
QNH
hPa
Press
MSL
hPa
Rain since
9am
mm
Dir  Spd
km/h
Gust
km/h
Spd
kts
Gust
kts
26/10:00am 13.2 11.2 4.4 55 4.0 E 4 7 2 4 1018.1 1018.1 0.0
26/09:30am 13.1 11.6 4.8 57 3.8 NNW 2 6 1 3 1018.5 1018.6 0.0
26/09:00am 11.0 9.6 5.7 70 2.5 WSW 2 4 1 2 1018.4 1018.5 0.0
26/08:30am 9.0 7.1 6.8 86 1.0 SSW 6 9 3 5 1018.4 1018.5 0.0
26/08:00am 7.0 5.2 7.0 100 0.0 S 6 7 3 4 1018.2 1018.3 0.0
26/07:30am 4.7 3.5 4.6 99 0.0 CALM 0 0 0 0 1018.1 1018.1 0.0
26/07:00am 1.9 -0.2 1.8 99 0.0 SSW 2 2 1 1 1018.0 1018.0 0.0
26/06:30am -0.2 -3.0 -0.3 99 0.0 SSW 4 4 2 2 1017.6 1017.6 0.0
26/06:00am 0.1 -2.6 0.0 99 0.0 WSW 4 4 2 2 1017.5 1017.5 0.0
26/05:30am 0.1 -2.6 0.0 99 0.0 WSW 4 6 2 3 1017.1 1017.1 0.0
26/05:00am -0.1 -3.3 -0.2 99 0.0 WSW 6 6 3 3 1016.7 1016.7 0.0
26/04:30am 0.3 -2.8 0.2 99 0.0 WSW 6 6 3 3 1016.5 1016.5 0.0
26/04:00am 0.8 -1.8 0.7 99 0.0 SW 4 4 2 2 1016.3 1016.3 0.0
26/03:30am 2.8 0.5 2.7 99 0.0 WSW 4 6 2 3 1016.1 1016.1 0.0
26/03:00am 1.9 -0.6 1.8 99 0.0 WSW 4 6 2 3 1016.1 1016.1 0.0
26/02:30am 2.0 -0.8 1.9 99 0.0 W 6 7 3 4 1016.1 1016.1 0.0
26/02:00am 2.5 -0.3 2.2 98 0.1 W 6 6 3 3 1016.0 1016.0 0.0
26/01:30am 3.4 0.8 3.1 98 0.1 W 6 6 3 3 1015.9 1015.9 0.0
26/01:00am 3.3 0.6 2.7 96 0.2 W 6 6 3 3 1015.8 1015.8 0.0
26/12:30am 4.4 2.3 3.7 95 0.3 WSW 4 4 2 2 1015.8 1015.8 0.0
26/12:00am 5.3 3.4 4.7 96 0.3 SW 4 4 2 2 1015.5 1015.5 0.0
 
Date/Time
EST
Temp
°C
App
Temp
°C
Dew
Point
°C
Rel
Hum
%
Delta-T
°C
Wind Press
QNH
hPa
Press
MSL
hPa
Rain since
9am
mm
Dir  Spd
km/h
Gust
km/h
Spd
kts
Gust
kts
25/11:30pm 5.1 3.5 4.4 95 0.3 SSW 2 2 1 1 1015.3 1015.3 0.0
25/11:00pm 5.1 2.7 4.2 94 0.4 S 6 9 3 5 1015.3 1015.3 0.0
25/10:30pm 5.8 3.5 4.8 93 0.4 SW 6 6 3 3 1015.1 1015.1 0.0
25/10:00pm 6.0 3.7 4.8 92 0.5 SSW 6 6 3 3 1015.0 1015.0 0.0
25/09:30pm 6.9 4.7 5.4 90 0.7 SSW 6 6 3 3 1014.6 1014.7 0.0
25/09:00pm 7.5 5.7 5.6 88 0.9 S 4 4 2 2 1014.4 1014.5 0.0
25/08:30pm 8.6 6.4 6.2 85 1.1 S 7 9 4 5 1014.0 1014.1 0.0
25/08:00pm 9.3 6.4 6.4 82 1.4 SSW 11 13 6 7 1013.5 1013.6 0.0
25/07:30pm 9.6 6.9 5.4 75 1.9 WSW 9 9 5 5 1012.9 1013.0 0.0
25/07:00pm 10.9 7.8 5.7 70 2.4 WSW 11 13 6 7 1012.5 1012.6 0.0
25/06:30pm 14.3 10.1 5.7 56 4.1 WSW 17 26 9 14 1012.0 1012.1 0.0
25/06:00pm 15.7 10.5 5.3 50 5.0 W 22 28 12 15 1011.5 1011.5 0.0
25/05:30pm 16.9 12.1 5.8 48 5.4 WSW 20 33 11 18 1011.2 1011.2 0.0
25/05:00pm 17.2 10.3 4.5 43 6.1 WSW 30 39 16 21 1010.9 1010.9 0.0
25/04:30pm 18.5 11.6 4.7 40 6.7 W 30 43 16 23 1010.4 1010.4 0.0
25/04:09pm 18.6 11.4 4.8 40 6.7 W 32 54 17 29 1010.3 1010.3 0.0
25/04:00pm 18.5 10.7 4.7 40 6.7 W 35 44 19 24 1010.3 1010.3 0.0
25/03:30pm 19.4 12.8 6.2 42 6.6 W 30 39 16 21 1010.1 1010.1 0.0
25/03:00pm 18.6 12.0 6.1 44 6.2 W 30 43 16 23 1010.0 1010.0 0.0
25/02:45pm 18.8 11.9 6.3 44 6.2 W 32 50 17 27 1010.0 1010.0 0.0
25/02:30pm 18.3 11.9 6.8 47 5.8 WNW 30 43 16 23 1010.1 1010.1 0.0
25/02:16pm 19.1 12.2 6.6 44 6.3 W 32 52 17 28 1010.0 1010.0 0.0
25/02:00pm 18.5 11.7 7.0 47 5.8 WNW 32 46 17 25 1010.0 1010.0 0.0
25/01:30pm 17.1 12.1 8.0 55 4.6 W 24 35 13 19 1010.1 1010.1 0.0
25/01:00pm 17.9 13.4 8.7 55 4.8 W 22 37 12 20 1010.1 1010.1 0.0
25/12:30pm 16.3 11.2 7.8 57 4.3 W 24 33 13 18 1010.2 1010.2 0.0
25/12:00pm 16.7 11.9 8.9 60 4.0 W 24 35 13 19 1010.3 1010.3 0.0
25/11:30am 14.9 10.8 8.8 67 3.1 W 20 28 11 15 1010.5 1010.5 0.0
25/11:00am 16.0 11.8 9.7 66 3.3 WNW 22 30 12 16 1010.8 1010.8 0.0
25/10:30am 14.0 10.0 9.2 73 2.5 WNW 20 30 11 16 1010.9 1010.9 0.0
25/10:00am 14.0 9.7 9.2 73 2.5 W 22 32 12 17 1010.9 1010.9 0.0
25/09:30am 13.0 9.2 9.1 77 2.0 W 19 28 10 15 1010.5 1010.5 0.0
25/09:00am 12.1 8.3 9.1 82 1.5 WNW 19 26 10 14 1010.5 1010.5 0.0
25/08:30am 11.8 9.1 9.0 83 1.4 NW 13 20 7 11 1010.3 1010.3 0.0
25/08:00am 10.9 8.6 9.0 88 1.0 NW 11 15 6 8 1009.8 1009.8 0.0
25/07:30am 10.2 8.2 8.8 91 0.7 NNW 9 11 5 6 1009.4 1009.4 0.0
25/07:00am 9.8 7.8 8.6 92 0.6 NW 9 13 5 7 1009.0 1009.0 0.0
25/06:30am 8.8 6.6 7.9 94 0.4 NW 9 13 5 7 1008.5 1008.5 0.0
25/06:00am 6.8 4.6 6.2 96 0.3 NNW 7 13 4 7 1008.1 1008.1 0.0
25/05:30am 7.5 5.5 6.9 96 0.3 NNW 7 9 4 5 1007.8 1007.8 0.0
25/05:00am 6.9 5.0 6.8 99 0.0 NNW 6 7 3 4 1007.4 1007.4 0.0
25/04:30am 4.9 2.4 4.5 97 0.2 NNE 7 7 4 4 1007.2 1007.2 0.0
25/04:00am 4.5 3.1 3.6 94 0.4 CALM 0 0 0 0 1006.9 1006.9 0.0
25/03:30am 5.8 4.7 5.1 95 0.3 CALM 0 0 0 0 1006.7 1006.8 0.0
25/03:00am 6.7 5.5 4.7 87 0.9 CALM 0 2 0 1 1006.9 1006.9 0.0
25/02:30am 8.5 6.3 6.1 85 1.1 WNW 7 9 4 5 1006.9 1006.9 0.0
25/02:00am 6.9 4.6 4.9 87 0.9 W 6 7 3 4 1006.9 1006.9 0.0
25/01:30am 6.3 4.6 4.1 86 0.9 SSW 2 2 1 1 1007.0 1007.0 0.0
25/01:00am 6.9 5.3 4.6 85 1.0 SE 2 4 1 2 1007.0 1007.0 0.0
25/12:30am 7.3 5.3 4.4 82 1.3 SSE 4 6 2 3 1006.7 1006.8 0.0
25/12:00am 9.3 7.3 4.5 72 2.2 WSW 4 6 2 3 1006.4 1006.5 0.0
 
Date/Time
EST
Temp
°C
App
Temp
°C
Dew
Point
°C
Rel
Hum
%
Delta-T
°C
Wind Press
QNH
hPa
Press
MSL
hPa
Rain since
9am
mm
Dir  Spd
km/h
Gust
km/h
Spd
kts
Gust
kts
24/11:30pm 11.8 7.8 5.0 63 3.1 W 15 19 8 10 1006.4 1006.5 0.0
24/11:00pm 13.0 8.9 4.4 56 4.0 W 15 22 8 12 1006.0 1006.1 0.0
24/10:30pm 13.4 9.2 4.0 53 4.3 W 15 20 8 11 1005.8 1005.9 0.0
24/10:00pm 15.2 10.0 3.4 45 5.4 WNW 20 35 11 19 1005.5 1005.6 0.0
24/09:30pm 14.7 11.3 3.8 48 5.0 WNW 11 20 6 11 1005.0 1005.0 0.0
24/09:00pm 14.3 11.2 3.7 49 4.9 NW 9 13 5 7 1004.8 1004.8 0.0
24/08:30pm 14.8 11.4 3.9 48 5.0 NW 11 17 6 9 1004.4 1004.4 0.0
24/08:00pm 15.4 12.0 3.9 46 5.4 NW 11 17 6 9 1004.1 1004.1 0.0
24/07:30pm 15.6 12.5 3.7 45 5.5 NW 9 19 5 10 1003.6 1003.6 0.0
24/07:00pm 16.4 12.9 3.5 42 6.0 NW 11 17 6 9 1003.2 1003.2 0.0
24/06:30pm 17.4 13.1 3.3 39 6.6 WNW 15 20 8 11 1002.9 1002.9 0.0
24/06:00pm 17.9 13.2 3.4 38 6.8 WNW 17 26 9 14 1002.7 1002.7 0.0
24/05:30pm 19.0 14.8 3.6 36 7.3 WNW 15 22 8 12 1002.4 1002.4 0.0
24/05:00pm 19.7 14.0 3.0 33 7.9 WNW 22 33 12 18 1002.2 1002.2 0.0
24/04:30pm 19.3 12.8 2.6 33 7.8 WNW 26 35 14 19 1002.0 1002.0 0.0
24/04:00pm 20.2 13.8 3.4 33 8.0 NW 26 39 14 21 1001.9 1001.9 0.0
24/03:30pm 20.3 14.0 3.9 34 7.9 WNW 26 35 14 19 1001.7 1001.7 0.0
24/03:09pm 20.7 14.1 4.3 34 8.0 WNW 28 50 15 27 1001.8 1001.8 0.0
24/03:00pm 20.7 14.5 4.3 34 8.0 WNW 26 39 14 21 1001.9 1001.9 0.0
24/02:30pm 20.6 15.2 4.6 35 7.8 WNW 22 32 12 17 1001.9 1001.9 0.0
24/02:00pm 19.3 14.1 5.4 40 6.9 WNW 22 32 12 17 1002.3 1002.3 0.0
24/01:30pm 20.6 15.4 5.4 37 7.5 WNW 22 33 12 18 1002.5 1002.5 0.0
24/01:00pm 19.5 13.1 5.2 39 7.1 WNW 28 39 15 21 1002.9 1002.9 0.0
24/12:42pm 20.2 14.0 6.2 40 7.0 NW 28 48 15 26 1003.1 1003.1 0.0
24/12:30pm 20.2 14.1 6.5 41 6.9 NW 28 43 15 23 1003.1 1003.1 0.0
24/12:00pm 18.1 12.3 6.3 46 5.9 NW 26 39 14 21 1003.5 1003.5 0.0
24/11:34am 18.7 12.7 7.2 47 5.8 NW 28 48 15 26 1003.3 1003.3 0.0
24/11:30am 18.7 12.8 7.5 48 5.7 NW 28 39 15 21 1003.6 1003.6 0.0
24/11:00am 18.8 14.0 9.0 53 5.2 NW 24 35 13 19 1003.8 1003.8 0.0
24/10:30am 17.3 12.0 8.4 56 4.6 NW 26 44 14 24 1004.3 1004.3 0.0
24/10:00am 16.4 10.8 8.9 61 3.9 NNW 28 37 15 20 1004.6 1004.6 0.0
24/09:30am 16.3 11.0 9.7 65 3.5 NNW 28 33 15 18 1004.7 1004.7 0.0
24/09:00am 14.3 10.4 9.5 73 2.5 NNW 20 28 11 15 1004.8 1004.8 0.0
24/08:30am 14.2 10.9 9.6 74 2.4 NNW 17 22 9 12 1004.9 1004.9 0.0
24/08:00am 12.4 8.9 8.7 78 1.9 NNW 17 22 9 12 1004.1 1004.1 0.0
24/07:30am 11.0 7.4 8.2 83 1.4 N 17 20 9 11 1003.5 1003.5 0.0
24/07:00am 10.7 8.3 8.5 86 1.1 N 11 17 6 9 1003.3 1003.3 0.0
24/06:30am 9.4 6.9 8.0 91 0.7 NNE 11 15 6 8 1003.2 1003.2 0.0
24/06:00am 9.5 7.3 7.9 90 0.8 NNE 9 11 5 6 1003.3 1003.3 0.0
24/05:30am 10.1 7.6 8.4 89 0.8 N 11 13 6 7 1003.9 1003.9 0.0
24/05:00am 11.2 8.7 8.2 82 1.5 NNW 11 15 6 8 1003.8 1003.8 0.0
24/04:30am 12.2 10.2 8.5 78 1.8 NW 9 13 5 7 1003.7 1003.7 0.0
24/04:00am 12.4 10.0 8.7 78 1.9 NW 11 15 6 8 1003.5 1003.5 0.0
24/03:30am 12.6 10.2 8.7 77 2.0 NW 11 15 6 8 1003.4 1003.4 0.0
24/03:00am 13.1 10.3 8.6 74 2.3 NW 13 22 7 12 1003.4 1003.4 0.0
24/02:30am 13.6 10.4 8.4 71 2.6 WNW 15 22 8 12 1003.3 1003.3 0.0
24/02:00am 13.9 10.2 8.1 68 2.9 WNW 17 22 9 12 1003.1 1003.1 0.0
24/01:30am 14.5 10.2 8.0 65 3.3 WNW 20 30 11 16 1002.6 1002.6 0.0
24/01:00am 14.4 11.2 8.4 67 3.0 WNW 15 24 8 13 1002.7 1002.7 0.0
24/12:30am 14.6 11.3 8.1 65 3.3 W 15 19 8 10 1002.2 1002.2 0.0
24/12:00am 15.3 11.0 7.8 61 3.8 W 20 30 11 16 1001.9 1001.9 0.0
 
Date/Time
EST
Temp
°C
App
Temp
°C
Dew
Point
°C
Rel
Hum
%
Delta-T
°C
Wind Press
QNH
hPa
Press
MSL
hPa
Rain since
9am
mm
Dir  Spd
km/h
Gust
km/h
Spd
kts
Gust
kts
23/11:30pm 15.8 11.7 7.8 59 4.0 W 19 30 10 16 1001.4 1001.4 0.0
23/11:00pm 16.3 12.4 9.3 63 3.7 WSW 20 28 11 15 1000.9 1000.9 0.0
23/10:30pm 17.3 12.2 9.2 59 4.2 W 26 33 14 18 1000.6 1000.6 0.0
23/10:00pm 18.2 12.5 8.5 53 5.1 WSW 28 35 15 19 1000.1 1000.1 0.0
23/09:30pm 18.6 13.7 8.6 52 5.2 WSW 24 33 13 18 999.3 999.3 0.0
23/09:00pm 19.6 12.9 8.0 47 6.1 WSW 33 48 18 26 998.8 998.8 0.0
23/08:30pm 20.8 13.4 8.4 45 6.5 WSW 37 50 20 27 998.2 998.2 0.0
23/08:11pm 21.4 14.2 9.3 46 6.5 WSW 37 56 20 30 997.9 997.9 0.0
23/08:00pm 22.0 14.2 9.9 46 6.6 WSW 41 57 22 31 997.8 997.8 0.0
23/07:30pm 24.1 17.4 8.1 36 8.5 WSW 33 56 18 30 996.9 996.9 0.0
23/07:29pm 24.0 17.5 8.0 36 8.5 WSW 32 50 17 27 996.8 996.8 0.0
23/07:00pm 24.4 19.6 8.8 37 8.5 W 24 35 13 19 995.6 995.6 0.0
23/06:30pm 24.8 20.6 8.3 35 8.9 W 20 30 11 16 994.8 994.8 0.0
23/06:00pm 26.6 22.3 7.1 29 10.5 W 19 26 10 14 994.2 994.2 0.0
23/05:30pm 28.8 23.0 6.2 24 12.0 W 26 41 14 22 993.7 993.7 0.0
23/05:00pm 31.3 23.3 5.7 20 13.8 W 37 65 20 35 993.0 993.0 0.0
23/04:51pm 33.3 27.2 5.0 17 15.1 WNW 26 65 14 35 992.6 992.6 0.0
23/04:30pm 33.7 27.5 4.4 16 15.5 NW 26 39 14 21 992.0 991.9 0.0
23/04:00pm 32.1 28.6 5.6 19 14.3 NNW 13 32 7 17 992.0 991.9 0.0
23/03:59pm 31.3 28.4 6.4 21 13.4 N 11 32 6 17 992.0 991.9 0.0
23/03:30pm 26.1 25.5 14.6 49 6.9 NE 11 13 6 7 992.4 992.4 0.0
23/03:00pm 27.1 24.8 11.6 38 9.0 NE 15 20 8 11 993.0 993.0 0.0
23/02:30pm 27.5 25.1 11.5 37 9.2 NE 15 20 8 11 993.5 993.5 0.0
23/02:00pm 27.8 25.6 10.9 35 9.7 NE 13 19 7 10 994.3 994.3 0.0
23/01:30pm 28.5 24.7 7.7 27 11.3 NNE 17 26 9 14 995.2 995.2 0.0
23/01:00pm 29.0 23.4 7.0 25 11.9 NNE 26 41 14 22 995.9 995.9 0.0
23/12:30pm 28.0 23.9 8.8 30 10.6 NNE 20 28 11 15 996.5 996.5 0.0
23/12:00pm 28.4 23.9 8.7 29 10.9 NNE 22 32 12 17 997.4 997.4 0.0
23/11:30am 27.4 23.2 8.3 30 10.4 NNE 20 32 11 17 998.1 998.1 0.0
23/11:00am 25.8 21.5 7.9 32 9.7 NNE 20 35 11 19 998.8 998.8 0.0
23/10:30am 24.5 20.7 7.6 34 9.0 NE 17 26 9 14 999.6 999.6 0.0

Other Formats:

Comma delimited format used in spreadsheet applications
http://www.bom.gov.au/fwo/IDN60801/IDN60801.94862.axf

JavaScript Object Notation format (JSON) in row-major order
http://www.bom.gov.au/fwo/IDN60801/IDN60801.94862.json